KRKP/RKP METAR and TAF weather

Enter ICAO airport designator
Station Type Date Time Source
KRKP METAR 2020/04/01 23:53 UTC NOAA

KRKP 012353Z AUTO 11013KT 10SM BKN027 23/15 A2992 RMK AO2 SLP134 T02280150 10261 20228 55002


Station Type Date Time Source
KRKP Decoded METAR 2020/04/01 23:53 UTC NOAA

ROCKPORT ARANSAS COUNTY AIRPORT , TX, United States (KRKP) 28-05N 97-03W 6M
Apr 01, 2020 - 07:53 PM EDT / 2020.04.01 2353 UTC
Wind: from the ESE (110 degrees) at 15 MPH (13 KT):0
Visibility: 10 mile(s):0
Sky conditions: mostly cloudy
Temperature: 73.0 F (22.8 C)
Dew Point: 59.0 F (15.0 C)
Relative Humidity: 61%
Pressure (altimeter): 29.92 in. Hg (1013 hPa)
Pressure tendency: 0.01 inches (0.2 hPa) lower than three hours ago
ob: KRKP 012353Z AUTO 11013KT 10SM BKN027 23/15 A2992 RMK AO2 SLP134 T02280150 10261 20228 55002
cycle: 0

Station Type Date Time Source
KRKP TAF UTC NOAA

Error!

Example: see airport list